Time;durP1;ratioP1;P1;durP2;ratioP2;P2;SDS_P1;SDS_P2;PMS_P1;PMS_P2;Temp;Humidity;BMP_temperature;BMP_pressure;BME280_temperature;BME280_humidity;BME280_pressure;Samples;Min_cycle;Max_cycle;Signal;HPM_P1;HPM_P2
2023/05/09 00:00:13;;;;;;;0.23;0.23;;;14.50;99.90;;;;;;5060717;28;20484;-76
2023/05/09 00:02:40;;;;;;;1.50;0.50;;;14.40;99.90;;;;;;5053939;28;20106;-76
2023/05/09 00:05:09;;;;;;;0.52;0.52;;;14.40;99.90;;;;;;5056850;28;20384;-77
2023/05/09 00:07:34;;;;;;;0.10;0.10;;;14.40;99.90;;;;;;5058709;28;20024;-78
2023/05/09 00:10:00;;;;;;;0.20;0.20;;;14.30;99.90;;;;;;5056435;28;20028;-77
2023/05/09 00:12:27;;;;;;;1.53;1.43;;;14.30;99.90;;;;;;5051916;28;20150;-77
2023/05/09 00:14:55;;;;;;;0.63;0.63;;;14.30;99.90;;;;;;5043713;28;20047;-78
2023/05/09 00:17:22;;;;;;;0.30;0.30;;;14.30;99.90;;;;;;5053297;28;20029;-78
2023/05/09 00:19:49;;;;;;;0.40;0.40;;;14.30;99.90;;;;;;5060955;28;20106;-77
2023/05/09 00:22:16;;;;;;;0.10;0.10;;;14.30;99.90;;;;;;5061662;28;20484;-77
2023/05/09 00:24:42;;;;;;;0.10;0.10;;;14.30;99.90;;;;;;5042962;28;20032;-77
2023/05/09 00:27:09;;;;;;;0.60;0.60;;;14.30;99.90;;;;;;5060171;28;20372;-81
2023/05/09 00:29:34;;;;;;;0.45;0.45;;;14.30;99.90;;;;;;5060490;28;20072;-79
2023/05/09 00:32:00;;;;;;;0.03;0.03;;;14.30;99.90;;;;;;5033678;28;20502;-80
2023/05/09 00:34:26;;;;;;;0.60;0.60;;;14.40;99.90;;;;;;5057374;28;20761;-76
2023/05/09 00:36:51;;;;;;;0.20;0.20;;;14.40;99.90;;;;;;5061022;28;20110;-78
2023/05/09 00:39:17;;;;;;;0.10;0.10;;;14.40;99.90;;;;;;5056143;28;20025;-80
2023/05/09 00:41:43;;;;;;;0.97;0.87;;;14.40;99.90;;;;;;5061751;28;20025;-78
2023/05/09 00:44:08;;;;;;;0.20;0.20;;;14.30;99.90;;;;;;5057020;28;20613;-77
2023/05/09 00:46:34;;;;;;;0.40;0.40;;;14.20;99.90;;;;;;5061551;28;20024;-79
2023/05/09 00:49:00;;;;;;;0.20;0.20;;;14.20;99.90;;;;;;5060354;28;20079;-79
2023/05/09 00:51:27;;;;;;;0.47;0.47;;;14.20;99.90;;;;;;5055550;28;20064;-78
2023/05/09 00:53:53;;;;;;;0.17;0.17;;;14.20;99.90;;;;;;5060979;28;20025;-79
2023/05/09 00:56:19;;;;;;;0.40;0.40;;;14.20;99.90;;;;;;5055898;28;20045;-77
2023/05/09 00:58:44;;;;;;;0.00;0.00;;;14.20;99.90;;;;;;5060871;28;20135;-78
2023/05/09 01:01:10;;;;;;;0.00;0.00;;;14.10;99.90;;;;;;5060977;28;20107;-78
2023/05/09 01:03:38;;;;;;;0.00;0.00;;;14.00;99.90;;;;;;5057286;28;20178;-79
2023/05/09 01:06:42;;;;;;;0.13;0.13;;;13.90;99.90;;;;;;5065043;28;20025;-77
2023/05/09 01:09:27;;;;;;;0.08;0.08;;;13.80;99.90;;;;;;5058362;28;20036;-79
2023/05/09 01:12:02;;;;;;;0.23;0.23;;;13.60;99.90;;;;;;5057902;28;20028;-76
2023/05/09 01:14:43;;;;;;;0.20;0.20;;;13.60;99.90;;;;;;5056382;28;20044;-77
2023/05/09 01:17:35;;;;;;;0.10;0.10;;;13.50;99.90;;;;;;5050899;28;20025;-77
2023/05/09 01:20:01;;;;;;;0.00;0.00;;;13.50;99.90;;;;;;5062926;28;20071;-78
2023/05/09 01:22:34;;;;;;;0.07;0.07;;;13.50;99.90;;;;;;5064592;28;20101;-79
2023/05/09 01:25:00;;;;;;;0.15;0.15;;;13.60;99.90;;;;;;5059259;28;20314;-76
2023/05/09 01:28:10;;;;;;;0.20;0.20;;;13.50;99.90;;;;;;5058385;28;20601;-76
2023/05/09 01:30:37;;;;;;;0.20;0.20;;;13.50;99.90;;;;;;5060866;28;20032;-76
2023/05/09 01:33:06;;;;;;;0.65;0.38;;;13.40;99.90;;;;;;5061463;28;20028;-78
2023/05/09 01:35:36;;;;;;;0.35;0.35;;;13.40;99.90;;;;;;5052111;28;20049;-77
2023/05/09 01:38:18;;;;;;;0.10;0.10;;;13.40;99.90;;;;;;5063118;28;20071;-79
2023/05/09 01:40:47;;;;;;;0.32;0.32;;;13.40;99.90;;;;;;5068575;28;20127;-77
2023/05/09 01:43:16;;;;;;;0.63;0.40;;;13.40;99.90;;;;;;5058953;28;20697;-78
2023/05/09 01:45:43;;;;;;;0.90;0.90;;;13.40;99.90;;;;;;5060323;28;20029;-77
2023/05/09 01:48:11;;;;;;;0.88;0.80;;;13.40;99.90;;;;;;5046391;28;20043;-78
2023/05/09 01:50:39;;;;;;;0.20;0.20;;;13.50;99.90;;;;;;5057252;28;20024;-77
2023/05/09 01:53:06;;;;;;;0.10;0.10;;;13.50;99.90;;;;;;5062160;28;20025;-78
2023/05/09 01:55:35;;;;;;;0.10;0.10;;;13.50;99.90;;;;;;5063716;28;20041;-78
2023/05/09 01:58:03;;;;;;;0.28;0.28;;;13.60;99.90;;;;;;5060278;28;20055;-76
2023/05/09 02:00:32;;;;;;;0.10;0.10;;;13.60;99.90;;;;;;5061811;28;20055;-78
2023/05/09 02:02:59;;;;;;;0.00;0.00;;;13.70;99.90;;;;;;5061551;28;20052;-78
2023/05/09 02:05:29;;;;;;;0.35;0.35;;;13.60;99.90;;;;;;5059290;28;20887;-78
2023/05/09 02:07:57;;;;;;;0.10;0.10;;;13.50;99.90;;;;;;5064073;28;20033;-78
2023/05/09 02:10:26;;;;;;;0.20;0.20;;;13.50;99.90;;;;;;5050369;28;20158;-77
2023/05/09 02:12:53;;;;;;;0.08;0.08;;;13.50;99.90;;;;;;5059700;28;20108;-76
2023/05/09 02:15:20;;;;;;;0.20;0.20;;;13.50;99.90;;;;;;5062263;28;20056;-77
2023/05/09 02:17:45;;;;;;;0.10;0.10;;;13.40;99.90;;;;;;5061659;28;20028;-76
2023/05/09 02:20:12;;;;;;;0.13;0.13;;;13.40;99.90;;;;;;5059032;28;20159;-79
2023/05/09 02:22:39;;;;;;;0.57;0.57;;;13.40;99.90;;;;;;5051747;28;20545;-77
2023/05/09 02:25:06;;;;;;;0.20;0.20;;;13.40;99.90;;;;;;5053347;28;20101;-78
2023/05/09 02:27:33;;;;;;;0.10;0.10;;;13.40;99.90;;;;;;5061915;28;20074;-77
2023/05/09 02:30:03;;;;;;;0.10;0.10;;;13.30;99.90;;;;;;5061750;28;20024;-76
2023/05/09 02:32:32;;;;;;;0.52;0.52;;;13.40;99.90;;;;;;5056481;28;20040;-79
2023/05/09 02:35:00;;;;;;;0.00;0.00;;;13.40;99.90;;;;;;5059699;28;20055;-78
2023/05/09 02:37:26;;;;;;;0.10;0.10;;;13.40;99.90;;;;;;5060676;28;20641;-78
2023/05/09 02:39:53;;;;;;;0.77;0.50;;;13.30;99.90;;;;;;5055751;28;20017;-77
2023/05/09 02:42:25;;;;;;;1.70;0.85;;;13.30;99.90;;;;;;5053310;28;20037;-77
2023/05/09 02:44:54;;;;;;;0.20;0.20;;;13.30;99.90;;;;;;5057829;28;20025;-75
2023/05/09 02:47:20;;;;;;;5.97;0.93;;;13.30;99.90;;;;;;5065170;28;20635;-79
2023/05/09 02:49:46;;;;;;;7.07;0.82;;;13.20;99.90;;;;;;5053189;28;20017;-76
2023/05/09 02:52:12;;;;;;;0.08;0.08;;;13.20;99.90;;;;;;5061971;28;20025;-78
2023/05/09 02:54:38;;;;;;;0.25;0.25;;;13.20;99.90;;;;;;5068450;28;20403;-78
2023/05/09 02:57:04;;;;;;;0.10;0.10;;;13.20;99.90;;;;;;5062589;28;20075;-76
2023/05/09 02:59:30;;;;;;;0.20;0.20;;;13.20;99.90;;;;;;5063451;28;20129;-78
2023/05/09 03:01:56;;;;;;;0.10;0.10;;;13.30;99.90;;;;;;5060901;28;20043;-76
2023/05/09 03:04:22;;;;;;;1.37;0.90;;;13.30;99.90;;;;;;5053623;28;20059;-78
2023/05/09 03:06:48;;;;;;;1.20;0.60;;;13.40;99.90;;;;;;5053057;28;20098;-78
2023/05/09 03:09:14;;;;;;;0.40;0.40;;;13.40;99.90;;;;;;5058292;28;21059;-77
2023/05/09 03:11:40;;;;;;;0.00;0.00;;;13.40;99.90;;;;;;5057277;28;20029;-76
2023/05/09 03:14:07;;;;;;;0.23;0.23;;;13.50;99.90;;;;;;5060770;28;20063;-77
2023/05/09 03:16:33;;;;;;;0.10;0.10;;;13.50;99.90;;;;;;5050723;28;20906;-78
2023/05/09 03:18:59;;;;;;;3.55;0.55;;;13.50;99.90;;;;;;5057254;28;20024;-77
2023/05/09 03:21:25;;;;;;;0.30;0.30;;;13.60;99.90;;;;;;5066904;28;20030;-78
2023/05/09 03:23:50;;;;;;;0.07;0.07;;;13.60;99.90;;;;;;5062257;28;20025;-77
2023/05/09 03:26:16;;;;;;;0.22;0.22;;;13.60;99.90;;;;;;5053813;28;20029;-77
2023/05/09 03:28:42;;;;;;;0.35;0.35;;;13.50;99.90;;;;;;5060307;28;20032;-76
2023/05/09 03:31:08;;;;;;;0.20;0.20;;;13.40;99.90;;;;;;5055717;28;20032;-76
2023/05/09 03:33:34;;;;;;;1.80;0.88;;;13.40;99.90;;;;;;5052648;28;20025;-77
2023/05/09 03:35:59;;;;;;;0.00;0.00;;;13.50;99.90;;;;;;5057540;28;20113;-76
2023/05/09 03:38:25;;;;;;;0.63;0.53;;;13.50;99.90;;;;;;5036596;28;20154;-78
2023/05/09 03:40:52;;;;;;;0.20;0.20;;;13.50;99.90;;;;;;5054594;28;20024;-76
2023/05/09 03:43:18;;;;;;;0.25;0.25;;;13.40;99.90;;;;;;5061303;28;20032;-79
2023/05/09 03:45:44;;;;;;;1.27;1.17;;;13.50;99.90;;;;;;5050877;28;20652;-78
2023/05/09 03:48:10;;;;;;;0.13;0.13;;;13.30;99.90;;;;;;5045643;28;20085;-77
2023/05/09 03:50:36;;;;;;;0.20;0.20;;;13.20;99.90;;;;;;5057878;28;20758;-76
2023/05/09 03:53:02;;;;;;;0.10;0.10;;;13.20;99.90;;;;;;5060413;28;20039;-76
2023/05/09 03:55:28;;;;;;;0.10;0.10;;;13.20;99.90;;;;;;5055893;28;20068;-76
2023/05/09 03:57:54;;;;;;;0.10;0.10;;;13.20;99.90;;;;;;5053449;28;20033;-77
2023/05/09 04:00:20;;;;;;;0.10;0.10;;;13.10;99.90;;;;;;5026387;28;20291;-78
2023/05/09 04:02:47;;;;;;;0.10;0.10;;;13.20;99.90;;;;;;5055502;28;20028;-76
2023/05/09 04:05:13;;;;;;;0.60;0.60;;;13.30;99.90;;;;;;5061887;28;20032;-77
2023/05/09 04:07:39;;;;;;;0.82;0.82;;;13.30;99.90;;;;;;5044019;28;20950;-77
2023/05/09 04:10:05;;;;;;;0.08;0.08;;;13.20;99.90;;;;;;5055031;28;20033;-77
2023/05/09 04:12:31;;;;;;;0.10;0.10;;;13.20;99.90;;;;;;5057846;28;20024;-77
2023/05/09 04:14:57;;;;;;;0.40;0.35;;;13.10;99.90;;;;;;5053017;28;20043;-79
2023/05/09 04:17:22;;;;;;;0.30;0.27;;;13.10;99.90;;;;;;5033687;28;20455;-77
2023/05/09 04:19:48;;;;;;;0.60;0.60;;;13.10;99.90;;;;;;5062151;28;20919;-76
2023/05/09 04:22:14;;;;;;;0.10;0.10;;;13.00;99.90;;;;;;5060055;28;20025;-77
2023/05/09 04:24:40;;;;;;;0.10;0.10;;;13.10;99.90;;;;;;5057216;28;20571;-77
2023/05/09 04:27:05;;;;;;;0.47;0.47;;;13.20;99.90;;;;;;5060485;28;20078;-77
2023/05/09 04:29:31;;;;;;;0.15;0.15;;;13.10;99.90;;;;;;5057816;28;20033;-77
2023/05/09 04:31:57;;;;;;;0.10;0.10;;;13.10;99.90;;;;;;5052465;28;20028;-75
2023/05/09 04:34:25;;;;;;;0.20;0.20;;;13.10;99.90;;;;;;5057432;28;20392;-78
2023/05/09 04:36:51;;;;;;;0.00;0.00;;;13.00;99.90;;;;;;5058066;28;20133;-77
2023/05/09 04:39:16;;;;;;;0.57;0.57;;;13.00;99.90;;;;;;5058298;28;20100;-77
2023/05/09 04:41:43;;;;;;;0.43;0.43;;;13.00;99.90;;;;;;5064427;28;20075;-79
2023/05/09 04:44:09;;;;;;;0.10;0.10;;;13.00;99.90;;;;;;5049996;28;20292;-75
2023/05/09 04:46:35;;;;;;;0.20;0.20;;;13.10;99.90;;;;;;5055861;28;20576;-78
2023/05/09 04:49:01;;;;;;;0.10;0.10;;;13.10;99.90;;;;;;5042653;28;20275;-76
2023/05/09 04:51:26;;;;;;;0.20;0.20;;;13.10;99.90;;;;;;5061034;28;20747;-77
2023/05/09 04:53:52;;;;;;;0.60;0.60;;;13.10;99.90;;;;;;5056999;28;20060;-77
2023/05/09 04:56:18;;;;;;;0.07;0.07;;;13.10;99.90;;;;;;5046713;28;20439;-75
2023/05/09 04:58:43;;;;;;;0.00;0.00;;;13.20;99.90;;;;;;5057992;28;20098;-76
2023/05/09 05:01:09;;;;;;;0.30;0.30;;;13.20;99.90;;;;;;5056937;28;20114;-76
2023/05/09 05:03:34;;;;;;;0.10;0.10;;;13.10;99.90;;;;;;5061008;28;20766;-77
2023/05/09 05:06:00;;;;;;;0.17;0.17;;;13.10;99.90;;;;;;5058224;28;20033;-78
2023/05/09 05:08:26;;;;;;;0.70;0.70;;;13.20;99.90;;;;;;5050670;28;20484;-77
2023/05/09 05:10:51;;;;;;;0.13;0.13;;;13.30;99.90;;;;;;5060198;28;20051;-76
2023/05/09 05:13:17;;;;;;;0.83;0.83;;;13.30;99.90;;;;;;5054702;28;20037;-81
2023/05/09 05:15:43;;;;;;;0.00;0.00;;;13.40;99.90;;;;;;5054943;28;20037;-77
2023/05/09 05:18:09;;;;;;;0.07;0.07;;;13.40;99.90;;;;;;5049836;28;20032;-77
2023/05/09 05:20:34;;;;;;;0.30;0.30;;;13.50;99.90;;;;;;5053231;28;20157;-79
2023/05/09 05:23:00;;;;;;;0.27;0.27;;;13.50;99.90;;;;;;5051618;28;20027;-78
2023/05/09 05:25:26;;;;;;;0.20;0.20;;;13.70;99.90;;;;;;5047426;28;20016;-78
2023/05/09 05:27:52;;;;;;;0.40;0.40;;;13.70;99.90;;;;;;5043003;28;20021;-78
2023/05/09 05:30:19;;;;;;;0.10;0.10;;;13.80;99.90;;;;;;5056930;28;20051;-79
2023/05/09 05:32:45;;;;;;;0.10;0.10;;;13.90;99.90;;;;;;5058665;28;20029;-79
2023/05/09 05:35:11;;;;;;;0.28;0.28;;;13.90;99.90;;;;;;5058058;28;20395;-77
2023/05/09 05:37:37;;;;;;;0.03;0.03;;;14.00;99.90;;;;;;5061655;28;20029;-80
2023/05/09 05:40:04;;;;;;;0.08;0.08;;;14.00;99.90;;;;;;5054962;28;20596;-77
2023/05/09 05:42:30;;;;;;;0.40;0.20;;;14.10;99.90;;;;;;5056265;28;20111;-79
2023/05/09 05:44:56;;;;;;;0.20;0.20;;;14.10;99.90;;;;;;5060778;28;20107;-77
2023/05/09 05:47:22;;;;;;;0.57;0.47;;;14.20;99.90;;;;;;5063939;28;20021;-78
2023/05/09 05:49:47;;;;;;;0.20;0.20;;;14.20;99.90;;;;;;5063006;28;20032;-78
2023/05/09 05:52:13;;;;;;;0.07;0.07;;;14.20;99.90;;;;;;5063868;28;20032;-77
2023/05/09 05:54:39;;;;;;;0.73;0.47;;;14.20;99.90;;;;;;5057141;28;20045;-77
2023/05/09 05:57:05;;;;;;;0.53;0.53;;;14.40;99.90;;;;;;5061796;28;20035;-77
2023/05/09 05:59:30;;;;;;;0.10;0.10;;;14.50;99.90;;;;;;5063638;28;20131;-79
2023/05/09 06:01:56;;;;;;;0.10;0.10;;;14.50;99.90;;;;;;5064271;28;20032;-78
2023/05/09 06:04:22;;;;;;;0.10;0.10;;;14.40;99.90;;;;;;5054865;28;20025;-77
2023/05/09 06:06:47;;;;;;;0.67;0.67;;;14.30;99.90;;;;;;5061637;28;20032;-79
2023/05/09 06:09:13;;;;;;;0.73;0.70;;;14.20;99.90;;;;;;5058912;28;20389;-78
2023/05/09 06:11:39;;;;;;;0.03;0.03;;;14.20;99.90;;;;;;5053702;28;20025;-76
2023/05/09 06:14:04;;;;;;;1.57;0.80;;;14.40;99.90;;;;;;5043159;28;20033;-80
2023/05/09 06:16:30;;;;;;;0.10;0.10;;;14.50;99.90;;;;;;5057850;28;20047;-78
2023/05/09 06:18:56;;;;;;;0.43;0.37;;;14.50;99.90;;;;;;5053503;28;20131;-78
2023/05/09 06:21:22;;;;;;;0.73;0.73;;;14.50;99.90;;;;;;5049253;28;21176;-79
2023/05/09 06:23:47;;;;;;;0.30;0.30;;;14.50;99.90;;;;;;5056856;28;20044;-79
2023/05/09 06:26:13;;;;;;;0.60;0.60;;;14.60;99.90;;;;;;5051152;28;20056;-79
2023/05/09 06:28:40;;;;;;;0.77;0.50;;;14.80;99.90;;;;;;5059680;28;20025;-79
2023/05/09 06:31:06;;;;;;;0.68;0.68;;;14.90;99.90;;;;;;5043093;28;20452;-79
2023/05/09 06:33:31;;;;;;;0.27;0.27;;;15.10;99.90;;;;;;5042910;28;20108;-79
2023/05/09 06:35:59;;;;;;;0.87;0.77;;;15.50;99.90;;;;;;5042759;28;20032;-79
2023/05/09 06:38:24;;;;;;;1.85;0.95;;;15.90;99.90;;;;;;5048783;28;20028;-80
2023/05/09 06:40:50;;;;;;;0.30;0.30;;;16.50;99.90;;;;;;5053675;28;20063;-79
2023/05/09 06:43:16;;;;;;;0.83;0.50;;;16.90;99.90;;;;;;5043058;28;20079;-79
2023/05/09 06:45:41;;;;;;;0.20;0.20;;;17.20;99.90;;;;;;5049760;28;20428;-79
2023/05/09 06:48:07;;;;;;;0.20;0.20;;;17.70;98.90;;;;;;5045852;28;20036;-79
2023/05/09 06:50:33;;;;;;;0.43;0.40;;;17.30;99.00;;;;;;5056154;28;20108;-79
2023/05/09 06:52:58;;;;;;;0.07;0.07;;;16.70;99.90;;;;;;5049299;28;20038;-79
2023/05/09 06:55:24;;;;;;;0.20;0.20;;;16.30;99.90;;;;;;5051402;28;20055;-79
2023/05/09 06:57:50;;;;;;;0.37;0.37;;;16.00;99.90;;;;;;5043949;28;20128;-79
2023/05/09 07:00:16;;;;;;;0.30;0.30;;;15.80;99.90;;;;;;5049366;28;20091;-79
2023/05/09 07:02:42;;;;;;;0.00;0.00;;;15.80;99.90;;;;;;5053871;28;20067;-79
2023/05/09 07:05:08;;;;;;;0.10;0.10;;;16.00;99.90;;;;;;5051156;28;20029;-79
2023/05/09 07:07:34;;;;;;;0.30;0.20;;;16.30;99.90;;;;;;5049639;28;20032;-79
2023/05/09 07:10:02;;;;;;;0.10;0.10;;;16.30;99.90;;;;;;5057839;28;20555;-79
2023/05/09 07:12:30;;;;;;;0.10;0.10;;;16.50;99.90;;;;;;5057882;28;20029;-79
2023/05/09 07:14:56;;;;;;;0.00;0.00;;;16.70;99.90;;;;;;5061473;28;20037;-79
2023/05/09 07:17:23;;;;;;;0.13;0.10;;;16.70;99.80;;;;;;5056291;28;20033;-79
2023/05/09 07:19:49;;;;;;;0.20;0.20;;;16.80;99.30;;;;;;5053688;28;20023;-79
2023/05/09 07:22:15;;;;;;;0.20;0.20;;;17.00;98.80;;;;;;5062671;28;20027;-79
